Time;durP1;ratioP1;P1;durP2;ratioP2;P2;SDS_P1;SDS_P2;PMS_P1;PMS_P2;Temp;Humidity;BMP_temperature;BMP_pressure;BME280_temperature;BME280_humidity;BME280_pressure;Samples;Min_cycle;Max_cycle;Signal;HPM_P1;HPM_P2
2022/06/09 00:01:57;;;;;;;12.40;3.80;;;;;;;;;;5074796;28;20420;-79
2022/06/09 00:04:26;;;;;;;11.67;3.50;;;;;;;;;;5088230;28;20438;-78
2022/06/09 00:06:55;;;;;;;11.37;3.37;;;;;;;;;;5095120;28;20398;-79
2022/06/09 00:09:22;;;;;;;8.75;3.05;;;;;;;;;;5095003;28;20406;-79
2022/06/09 00:11:49;;;;;;;9.60;3.47;;;;;;;;;;5093441;28;20181;-78
2022/06/09 00:14:16;;;;;;;13.68;3.75;;;;;;;;;;5093229;28;20817;-79
2022/06/09 00:16:43;;;;;;;11.47;3.87;;;;;;;;;;5092538;28;20664;-77
2022/06/09 00:19:09;;;;;;;13.20;3.70;;;;;;;;;;5094765;28;20490;-77
2022/06/09 00:21:35;;;;;;;12.63;3.77;;;;;;;;;;5094757;28;20801;-78
2022/06/09 00:24:02;;;;;;;10.93;3.40;;;;;;;;;;5082001;28;20938;-78
2022/06/09 00:26:28;;;;;;;8.83;3.37;;;;;;;;;;5072947;28;20805;-77
2022/06/09 00:28:55;;;;;;;10.50;3.30;;;;;;;;;;5074346;28;20442;-78
2022/06/09 00:31:21;;;;;;;12.23;2.90;;;;;;;;;;5074169;28;20424;-78
2022/06/09 00:33:47;;;;;;;8.30;3.17;;;;;;;;;;5074914;28;20420;-78
2022/06/09 00:36:13;;;;;;;13.30;3.23;;;;;;;;;;5074125;28;20534;-78
2022/06/09 00:38:39;;;;;;;18.00;4.10;;;;;;;;;;5074127;28;20499;-77
2022/06/09 00:41:06;;;;;;;4.73;2.87;;;;;;;;;;5074009;28;20455;-79
2022/06/09 00:43:32;;;;;;;10.30;3.05;;;;;;;;;;5084736;28;20430;-77
2022/06/09 00:45:58;;;;;;;8.77;3.78;;;;;;;;;;5092564;28;20220;-78
2022/06/09 00:48:37;;;;;;;12.20;3.90;;;;;;;;;;5094070;28;20706;-78
2022/06/09 00:51:15;;;;;;;10.07;3.22;;;;;;;;;;5094219;28;20781;-77
2022/06/09 00:53:42;;;;;;;14.00;3.80;;;;;;;;;;5081965;28;20177;-78
2022/06/09 00:56:10;;;;;;;12.30;4.17;;;;;;;;;;5073504;28;20467;-78
2022/06/09 00:58:38;;;;;;;8.10;3.50;;;;;;;;;;5073925;28;20494;-78
2022/06/09 01:01:11;;;;;;;11.10;3.90;;;;;;;;;;5072314;28;20915;-78
2022/06/09 01:03:40;;;;;;;11.73;3.83;;;;;;;;;;5084637;28;20779;-78
2022/06/09 01:06:08;;;;;;;9.23;3.10;;;;;;;;;;5093704;28;20462;-77
2022/06/09 01:08:35;;;;;;;10.60;3.13;;;;;;;;;;5093769;28;20168;-78
2022/06/09 01:11:03;;;;;;;9.13;3.38;;;;;;;;;;5093783;28;20399;-77
2022/06/09 01:13:30;;;;;;;13.53;4.53;;;;;;;;;;5091746;28;20188;-77
2022/06/09 01:16:02;;;;;;;14.27;4.07;;;;;;;;;;5093641;28;20426;-78
2022/06/09 01:18:35;;;;;;;9.57;3.80;;;;;;;;;;5092374;28;20549;-78
2022/06/09 01:21:08;;;;;;;12.52;3.97;;;;;;;;;;5093820;28;20515;-78
2022/06/09 01:23:53;;;;;;;14.43;3.90;;;;;;;;;;5092601;28;20191;-79
2022/06/09 01:26:26;;;;;;;9.00;3.50;;;;;;;;;;5092257;28;20503;-78
2022/06/09 01:28:52;;;;;;;9.13;3.50;;;;;;;;;;5093375;28;20434;-78
2022/06/09 01:31:22;;;;;;;12.90;4.33;;;;;;;;;;5091700;28;20477;-78
2022/06/09 01:33:52;;;;;;;18.17;3.40;;;;;;;;;;5093334;28;20452;-78
2022/06/09 01:36:23;;;;;;;9.33;3.47;;;;;;;;;;5093148;28;20435;-78
2022/06/09 01:38:52;;;;;;;11.10;4.07;;;;;;;;;;5093338;28;20419;-78
2022/06/09 01:41:18;;;;;;;7.40;2.90;;;;;;;;;;5091658;28;20430;-77
2022/06/09 01:43:45;;;;;;;11.03;3.63;;;;;;;;;;5092903;28;20410;-77
2022/06/09 01:46:16;;;;;;;5.77;2.93;;;;;;;;;;5093031;28;20994;-78
2022/06/09 01:48:42;;;;;;;9.53;3.37;;;;;;;;;;5093043;28;20459;-78
2022/06/09 01:51:11;;;;;;;8.53;3.43;;;;;;;;;;5092529;28;20418;-78
2022/06/09 01:53:37;;;;;;;11.03;3.50;;;;;;;;;;5092876;28;20923;-78
2022/06/09 01:56:22;;;;;;;15.10;4.30;;;;;;;;;;5091792;28;20556;-78
2022/06/09 01:58:53;;;;;;;12.17;3.27;;;;;;;;;;5093327;28;20406;-77
2022/06/09 02:01:22;;;;;;;15.87;3.50;;;;;;;;;;5082670;28;20728;-78
2022/06/09 02:03:49;;;;;;;11.70;3.13;;;;;;;;;;5072586;28;20414;-78
2022/06/09 02:06:16;;;;;;;13.17;3.70;;;;;;;;;;5072642;28;20832;-78
2022/06/09 02:08:42;;;;;;;10.20;3.10;;;;;;;;;;5072731;28;20414;-78
2022/06/09 02:11:09;;;;;;;15.90;4.03;;;;;;;;;;5073874;28;20430;-78
2022/06/09 02:13:39;;;;;;;14.20;3.63;;;;;;;;;;5072353;28;20483;-77
2022/06/09 02:16:07;;;;;;;10.50;4.00;;;;;;;;;;5071261;28;20443;-78
2022/06/09 02:18:36;;;;;;;7.60;3.00;;;;;;;;;;5072637;28;20876;-79
2022/06/09 02:21:08;;;;;;;15.40;5.67;;;;;;;;;;5079526;28;20512;-78
2022/06/09 02:23:34;;;;;;;15.53;4.37;;;;;;;;;;5091157;28;20414;-77
2022/06/09 02:26:00;;;;;;;11.10;4.07;;;;;;;;;;5092464;28;20832;-77
2022/06/09 02:28:26;;;;;;;9.03;3.60;;;;;;;;;;5092822;28;20402;-77
2022/06/09 02:30:52;;;;;;;13.53;3.93;;;;;;;;;;5086481;28;21019;-78
2022/06/09 02:33:19;;;;;;;13.13;4.07;;;;;;;;;;5072137;28;20407;-77
2022/06/09 02:35:45;;;;;;;19.00;5.10;;;;;;;;;;5072369;28;20896;-77
2022/06/09 02:38:11;;;;;;;14.93;5.13;;;;;;;;;;5072305;28;20419;-79
2022/06/09 02:40:37;;;;;;;10.47;3.83;;;;;;;;;;5073930;28;20436;-78
2022/06/09 02:43:03;;;;;;;10.40;4.50;;;;;;;;;;5082887;28;20525;-77
2022/06/09 02:45:29;;;;;;;10.37;4.30;;;;;;;;;;5096335;28;20477;-77
2022/06/09 02:47:55;;;;;;;14.37;6.73;;;;;;;;;;5096363;28;20895;-80
2022/06/09 02:50:22;;;;;;;11.90;5.40;;;;;;;;;;5096510;28;20903;-80
2022/06/09 02:52:48;;;;;;;11.70;5.20;;;;;;;;;;5091494;28;20469;-78
2022/06/09 02:55:14;;;;;;;18.03;6.30;;;;;;;;;;5075770;28;20517;-79
2022/06/09 02:57:40;;;;;;;8.83;5.63;;;;;;;;;;5075935;28;20502;-82
2022/06/09 03:00:08;;;;;;;19.97;7.07;;;;;;;;;;5074618;28;20419;-81
2022/06/09 03:02:34;;;;;;;20.47;7.93;;;;;;;;;;5075848;28;20415;-79
2022/06/09 03:05:00;;;;;;;16.07;6.40;;;;;;;;;;5095588;28;20992;-79
2022/06/09 03:07:26;;;;;;;13.10;7.13;;;;;;;;;;5096329;28;20414;-81
2022/06/09 03:09:53;;;;;;;19.23;7.43;;;;;;;;;;5094912;28;20438;-78
2022/06/09 03:12:20;;;;;;;16.63;6.60;;;;;;;;;;5096035;28;20463;-77
2022/06/09 03:14:46;;;;;;;19.52;7.55;;;;;;;;;;5077875;28;20521;-78
2022/06/09 03:17:12;;;;;;;20.67;6.63;;;;;;;;;;5075714;28;20212;-78
2022/06/09 03:19:39;;;;;;;22.70;8.40;;;;;;;;;;5075646;28;20411;-77
2022/06/09 03:22:05;;;;;;;15.27;8.37;;;;;;;;;;5075644;28;20412;-78
2022/06/09 03:24:31;;;;;;;16.30;7.80;;;;;;;;;;5075997;28;20440;-78
2022/06/09 03:26:57;;;;;;;21.13;8.20;;;;;;;;;;5074151;28;20426;-77
2022/06/09 03:29:23;;;;;;;17.80;8.10;;;;;;;;;;5075299;28;20412;-78
2022/06/09 03:31:49;;;;;;;25.45;9.45;;;;;;;;;;5075359;28;20801;-79
2022/06/09 03:34:16;;;;;;;17.07;9.03;;;;;;;;;;5075250;28;20232;-79
2022/06/09 03:36:45;;;;;;;17.20;9.27;;;;;;;;;;5075303;28;20419;-78
2022/06/09 03:39:12;;;;;;;22.27;8.93;;;;;;;;;;5075059;28;20173;-78
2022/06/09 03:41:38;;;;;;;18.27;9.57;;;;;;;;;;5075123;28;20498;-78
2022/06/09 03:44:05;;;;;;;17.17;9.57;;;;;;;;;;5075811;28;20481;-78
2022/06/09 03:46:31;;;;;;;20.10;9.40;;;;;;;;;;5075291;28;20573;-77
2022/06/09 03:48:57;;;;;;;19.37;9.00;;;;;;;;;;5074962;28;20408;-78
2022/06/09 03:51:23;;;;;;;20.23;8.50;;;;;;;;;;5074669;28;20495;-77
2022/06/09 03:53:49;;;;;;;17.77;8.80;;;;;;;;;;5079305;28;20463;-78
2022/06/09 03:56:16;;;;;;;17.10;7.73;;;;;;;;;;5095392;28;20429;-77
2022/06/09 03:58:42;;;;;;;15.47;8.80;;;;;;;;;;5095161;28;20418;-78
2022/06/09 04:01:13;;;;;;;23.60;8.90;;;;;;;;;;5094751;28;20433;-79
2022/06/09 04:03:39;;;;;;;27.37;10.60;;;;;;;;;;5074360;28;20276;-78
2022/06/09 04:06:05;;;;;;;15.30;8.00;;;;;;;;;;5074519;28;20625;-78
2022/06/09 04:08:33;;;;;;;19.53;8.77;;;;;;;;;;5074642;28;20415;-77
2022/06/09 04:10:59;;;;;;;14.57;8.70;;;;;;;;;;5074612;28;20415;-78
2022/06/09 04:13:25;;;;;;;24.17;9.30;;;;;;;;;;5089404;28;20796;-77
2022/06/09 04:15:51;;;;;;;25.07;10.07;;;;;;;;;;5094754;28;20441;-76
2022/06/09 04:18:17;;;;;;;20.27;9.87;;;;;;;;;;5094981;28;20915;-77
2022/06/09 04:20:43;;;;;;;17.13;9.40;;;;;;;;;;5093601;28;20419;-78
2022/06/09 04:23:09;;;;;;;22.17;9.63;;;;;;;;;;5080042;28;20424;-77
2022/06/09 04:25:35;;;;;;;19.57;9.37;;;;;;;;;;5074156;28;20893;-77
2022/06/09 04:28:01;;;;;;;19.97;10.80;;;;;;;;;;5074412;28;20493;-77
2022/06/09 04:30:27;;;;;;;24.23;10.63;;;;;;;;;;5074352;28;20819;-77
2022/06/09 04:32:54;;;;;;;27.60;10.60;;;;;;;;;;5075095;28;20420;-77
2022/06/09 04:35:20;;;;;;;19.80;10.13;;;;;;;;;;5072678;28;20572;-78
2022/06/09 04:38:01;;;;;;;25.10;9.40;;;;;;;;;;5074018;28;20419;-77
2022/06/09 04:40:30;;;;;;;23.83;11.00;;;;;;;;;;5074184;28;20943;-77
2022/06/09 04:42:56;;;;;;;24.40;9.70;;;;;;;;;;5084533;28;20953;-77
2022/06/09 04:45:22;;;;;;;20.10;9.47;;;;;;;;;;5094012;28;20448;-77
2022/06/09 04:47:48;;;;;;;18.00;9.77;;;;;;;;;;5094160;28;20399;-76
2022/06/09 04:50:16;;;;;;;16.97;9.40;;;;;;;;;;5094207;28;20414;-77
2022/06/09 04:52:46;;;;;;;26.83;9.70;;;;;;;;;;5091386;28;20422;-77
2022/06/09 04:55:12;;;;;;;19.23;9.67;;;;;;;;;;5092467;28;20513;-77
2022/06/09 04:57:38;;;;;;;19.83;9.60;;;;;;;;;;5093993;28;20487;-78
2022/06/09 05:00:08;;;;;;;25.47;9.33;;;;;;;;;;5093833;28;20415;-78
2022/06/09 05:02:34;;;;;;;20.30;10.03;;;;;;;;;;5090014;28;20428;-77
2022/06/09 05:05:00;;;;;;;21.97;8.83;;;;;;;;;;5073233;28;20482;-77
2022/06/09 05:07:26;;;;;;;24.67;9.70;;;;;;;;;;5073834;28;20415;-77
2022/06/09 05:09:52;;;;;;;21.03;8.20;;;;;;;;;;5073501;28;20491;-77
2022/06/09 05:12:18;;;;;;;20.37;9.47;;;;;;;;;;5072330;28;20494;-77
2022/06/09 05:14:44;;;;;;;17.73;8.70;;;;;;;;;;5074180;28;20448;-76
2022/06/09 05:17:10;;;;;;;15.20;9.70;;;;;;;;;;5073533;28;20416;-76
2022/06/09 05:19:36;;;;;;;19.67;9.57;;;;;;;;;;5073356;28;20411;-76
2022/06/09 05:22:02;;;;;;;13.30;8.77;;;;;;;;;;5073130;28;20424;-76
2022/06/09 05:24:28;;;;;;;26.63;11.00;;;;;;;;;;5071426;28;20501;-76
2022/06/09 05:26:53;;;;;;;13.50;9.10;;;;;;;;;;5073374;28;20818;-77
2022/06/09 05:29:19;;;;;;;14.67;9.00;;;;;;;;;;5071732;28;20407;-77
2022/06/09 05:31:45;;;;;;;14.60;9.87;;;;;;;;;;5072733;28;20437;-76
2022/06/09 05:34:11;;;;;;;24.33;9.47;;;;;;;;;;5074278;28;20453;-76
2022/06/09 05:36:38;;;;;;;17.53;9.37;;;;;;;;;;5072941;28;20415;-77
2022/06/09 05:44:52;;;;;;;19.50;9.87;;;;;;;;;;5087885;28;20456;-77
2022/06/09 05:47:20;;;;;;;18.70;9.20;;;;;;;;;;5093164;28;20398;-76
2022/06/09 05:49:47;;;;;;;20.17;9.93;;;;;;;;;;5093117;28;20466;-77
2022/06/09 05:52:13;;;;;;;22.33;9.10;;;;;;;;;;5091633;28;20442;-76
2022/06/09 05:54:39;;;;;;;24.23;9.37;;;;;;;;;;5081299;28;20458;-76
2022/06/09 05:57:05;;;;;;;20.87;9.50;;;;;;;;;;5073194;28;20411;-76
2022/06/09 05:59:31;;;;;;;19.43;9.60;;;;;;;;;;5073031;28;20482;-76
2022/06/09 06:01:57;;;;;;;22.43;9.10;;;;;;;;;;5072831;28;20416;-76
2022/06/09 06:04:23;;;;;;;15.37;8.50;;;;;;;;;;5072366;28;20533;-76
2022/06/09 06:06:49;;;;;;;22.23;9.80;;;;;;;;;;5072724;28;20408;-77
2022/06/09 06:09:17;;;;;;;20.07;9.67;;;;;;;;;;5072772;28;20419;-76
2022/06/09 06:11:43;;;;;;;15.57;9.03;;;;;;;;;;5072799;28;20403;-76
2022/06/09 06:14:09;;;;;;;20.90;9.77;;;;;;;;;;5072946;28;20735;-76
2022/06/09 06:16:36;;;;;;;19.27;9.10;;;;;;;;;;5071945;28;20453;-76
2022/06/09 06:19:02;;;;;;;18.47;9.00;;;;;;;;;;5072657;28;20414;-76
2022/06/09 06:21:28;;;;;;;22.90;9.37;;;;;;;;;;5072645;28;20408;-76
2022/06/09 06:23:55;;;;;;;20.17;7.83;;;;;;;;;;5081133;28;20422;-77
2022/06/09 06:26:21;;;;;;;19.00;8.27;;;;;;;;;;5092575;28;20545;-77
2022/06/09 06:28:47;;;;;;;17.27;8.87;;;;;;;;;;5092637;28;20915;-76
2022/06/09 06:31:13;;;;;;;19.00;8.57;;;;;;;;;;5091395;28;20649;-77
2022/06/09 06:33:39;;;;;;;22.43;7.97;;;;;;;;;;5090671;28;20407;-77
2022/06/09 06:36:05;;;;;;;15.60;8.03;;;;;;;;;;5091190;28;20436;-75
2022/06/09 06:38:32;;;;;;;18.07;8.33;;;;;;;;;;5092437;28;20407;-76
2022/06/09 06:40:58;;;;;;;24.70;9.37;;;;;;;;;;5092756;28;20763;-77
2022/06/09 06:43:24;;;;;;;22.63;8.30;;;;;;;;;;5080823;28;20419;-78
2022/06/09 06:45:51;;;;;;;17.93;9.43;;;;;;;;;;5078860;28;20465;-76
2022/06/09 06:48:17;;;;;;;20.27;8.03;;;;;;;;;;5081815;28;20419;-78
2022/06/09 06:50:43;;;;;;;17.13;8.30;;;;;;;;;;5075509;28;20407;-76
2022/06/09 06:53:12;;;;;;;16.43;7.37;;;;;;;;;;5072323;28;20431;-75
2022/06/09 06:55:38;;;;;;;19.07;8.20;;;;;;;;;;5072261;28;20428;-76
2022/06/09 06:58:04;;;;;;;23.37;8.50;;;;;;;;;;5072165;28;20825;-77
2022/06/09 07:00:30;;;;;;;14.80;8.70;;;;;;;;;;5071874;28;20411;-76
2022/06/09 07:02:56;;;;;;;19.27;8.20;;;;;;;;;;5082097;28;20414;-76
2022/06/09 07:05:22;;;;;;;14.73;8.30;;;;;;;;;;5082695;28;20969;-76
2022/06/09 07:07:49;;;;;;;23.47;8.43;;;;;;;;;;5081621;28;20411;-76
2022/06/09 07:10:15;;;;;;;19.50;9.70;;;;;;;;;;5079212;28;20424;-75
2022/06/09 07:12:41;;;;;;;15.07;8.80;;;;;;;;;;5080755;28;20406;-75
2022/06/09 07:15:08;;;;;;;23.20;8.50;;;;;;;;;;5082691;28;20487;-78
2022/06/09 07:17:34;;;;;;;17.63;9.07;;;;;;;;;;5089098;28;20719;-76
2022/06/09 07:20:00;;;;;;;21.87;9.33;;;;;;;;;;5092366;28;20483;-75
2022/06/09 07:22:26;;;;;;;16.90;8.70;;;;;;;;;;5092165;28;20403;-77
2022/06/09 07:24:55;;;;;;;13.77;8.43;;;;;;;;;;5091531;28;20946;-76
2022/06/09 07:27:22;;;;;;;23.27;8.00;;;;;;;;;;5094667;28;20404;-79
2022/06/09 07:29:48;;;;;;;14.93;8.77;;;;;;;;;;5095721;28;20770;-76
2022/06/09 07:32:14;;;;;;;15.63;9.33;;;;;;;;;;5095471;28;20426;-75
2022/06/09 07:34:41;;;;;;;11.80;8.70;;;;;;;;;;5095113;28;20521;-78
2022/06/09 07:37:07;;;;;;;14.23;8.13;;;;;;;;;;5095296;28;20415;-78
2022/06/09 07:39:33;;;;;;;23.33;8.90;;;;;;;;;;5095485;28;20997;-77
2022/06/09 07:42:00;;;;;;;15.80;7.57;;;;;;;;;;5095465;28;20433;-78
2022/06/09 07:44:26;;;;;;;13.10;8.37;;;;;;;;;;5093537;28;20945;-74
2022/06/09 07:46:52;;;;;;;14.37;7.90;;;;;;;;;;5095273;28;20489;-77
2022/06/09 07:49:18;;;;;;;16.70;8.70;;;;;;;;;;5095108;28;20406;-77
2022/06/09 07:51:44;;;;;;;13.87;8.53;;;;;;;;;;5095155;28;20941;-78
2022/06/09 07:54:10;;;;;;;19.13;8.87;;;;;;;;;;5094898;28;20891;-79
2022/06/09 07:56:37;;;;;;;17.07;7.87;;;;;;;;;;5093936;28;20980;-77
2022/06/09 07:59:06;;;;;;;20.13;9.80;;;;;;;;;;5093800;28;20399;-76
2022/06/09 08:01:32;;;;;;;16.00;8.87;;;;;;;;;;5095043;28;20748;-77
2022/06/09 08:03:58;;;;;;;15.20;7.90;;;;;;;;;;5094939;28;20751;-78
2022/06/09 08:06:24;;;;;;;14.63;8.33;;;;;;;;;;5093590;28;20462;-77
2022/06/09 08:08:50;;;;;;;11.77;6.97;;;;;;;;;;5095169;28;20402;-78
2022/06/09 08:11:17;;;;;;;13.00;7.17;;;;;;;;;;5095157;28;20766;-78
2022/06/09 08:13:43;;;;;;;19.00;7.10;;;;;;;;;;5094701;28;20771;-77
2022/06/09 08:16:08;;;;;;;18.03;8.03;;;;;;;;;;5094792;28;20430;-78
2022/06/09 08:18:35;;;;;;;18.00;7.33;;;;;;;;;;5091323;28;20476;-79
2022/06/09 08:21:00;;;;;;;17.33;7.23;;;;;;;;;;5085135;28;20515;-77
2022/06/09 08:23:27;;;;;;;7.43;6.00;;;;;;;;;;5081524;28;20439;-78
2022/06/09 08:25:55;;;;;;;20.17;7.10;;;;;;;;;;5083115;28;20458;-78
2022/06/09 08:28:21;;;;;;;12.43;6.47;;;;;;;;;;5085995;28;20407;-78
2022/06/09 08:30:48;;;;;;;16.70;6.90;;;;;;;;;;5084041;28;20456;-76
2022/06/09 08:33:14;;;;;;;14.03;6.50;;;;;;;;;;5084699;28;20423;-78
2022/06/09 08:35:40;;;;;;;14.73;6.80;;;;;;;;;;5085814;28;20434;-77
2022/06/09 08:38:07;;;;;;;10.43;6.00;;;;;;;;;;5093855;28;20963;-77
2022/06/09 08:40:51;;;;;;;11.37;6.20;;;;;;;;;;5094631;28;20418;-76
2022/06/09 08:43:41;;;;;;;14.73;5.97;;;;;;;;;;5094042;28;20414;-78
2022/06/09 08:46:18;;;;;;;14.13;6.57;;;;;;;;;;5094096;28;20564;-77
2022/06/09 08:48:46;;;;;;;14.90;5.90;;;;;;;;;;5094281;28;20406;-77
2022/06/09 08:51:21;;;;;;;12.03;5.70;;;;;;;;;;5094284;28;20430;-77
2022/06/09 08:53:49;;;;;;;17.03;6.60;;;;;;;;;;5093918;28;20398;-77
2022/06/09 08:56:15;;;;;;;11.30;5.03;;;;;;;;;;5094327;28;20462;-78
2022/06/09 08:58:43;;;;;;;7.90;5.50;;;;;;;;;;5093123;28;20435;-79
2022/06/09 09:01:09;;;;;;;13.50;5.40;;;;;;;;;;5094231;28;20435;-76
2022/06/09 09:03:40;;;;;;;10.67;5.50;;;;;;;;;;5093925;28;20449;-77
2022/06/09 09:06:24;;;;;;;10.63;5.07;;;;;;;;;;5090285;28;20463;-77
2022/06/09 09:08:51;;;;;;;10.40;4.63;;;;;;;;;;5073864;28;20423;-79
2022/06/09 09:11:17;;;;;;;10.80;4.47;;;;;;;;;;5073736;28;20404;-77
2022/06/09 09:13:43;;;;;;;14.43;4.83;;;;;;;;;;5073123;28;20411;-76
2022/06/09 09:16:32;;;;;;;7.97;4.10;;;;;;;;;;5073678;28;20423;-78
2022/06/09 09:19:20;;;;;;;10.30;4.07;;;;;;;;;;5073514;28;20404;-77
2022/06/09 09:22:07;;;;;;;14.53;4.77;;;;;;;;;;5073501;28;20465;-79
2022/06/09 09:24:45;;;;;;;10.33;4.60;;;;;;;;;;5041449;28;20440;-76
2022/06/09 09:27:33;;;;;;;10.20;4.57;;;;;;;;;;5073331;28;20400;-75
2022/06/09 09:30:08;;;;;;;15.80;4.50;;;;;;;;;;5071975;28;20407;-78
2022/06/09 09:32:40;;;;;;;7.90;3.33;;;;;;;;;;5073388;28;20442;-77
2022/06/09 09:35:11;;;;;;;11.40;4.70;;;;;;;;;;5072816;28;20461;-78
2022/06/09 09:37:43;;;;;;;11.90;3.83;;;;;;;;;;5072961;28;20443;-77
2022/06/09 09:40:27;;;;;;;11.50;3.70;;;;;;;;;;5073277;28;20400;-79
2022/06/09 09:42:55;;;;;;;6.10;3.30;;;;;;;;;;5072723;28;20490;-77
2022/06/09 09:45:23;;;;;;;14.23;5.20;;;;;;;;;;5072870;28;20471;-76
2022/06/09 09:47:51;;;;;;;5.30;3.10;;;;;;;;;;5072901;28;20476;-78
2022/06/09 09:50:23;;;;;;;9.63;3.93;;;;;;;;;;5073110;28;20451;-77
2022/06/09 09:52:54;;;;;;;12.60;3.83;;;;;;;;;;5079685;28;20491;-78
2022/06/09 09:55:29;;;;;;;12.13;3.97;;;;;;;;;;5081196;28;20442;-77
2022/06/09 09:58:13;;;;;;;7.57;3.10;;;;;;;;;;5081144;28;20402;-77
2022/06/09 10:00:40;;;;;;;8.30;3.23;;;;;;;;;;5078010;28;20896;-78
2022/06/09 10:08:52;;;;;;;11.17;3.80;;;;;;;;;;5073175;28;20628;-77
2022/06/09 10:14:24;;;;;;;8.30;3.43;;;;;;;;;;5072468;28;20415;-77
2022/06/09 10:16:52;;;;;;;12.23;3.80;;;;;;;;;;5075515;28;20385;-77
2022/06/09 10:19:20;;;;;;;10.13;3.00;;;;;;;;;;5072842;28;20386;-78
2022/06/09 10:21:50;;;;;;;7.73;3.80;;;;;;;;;;5072602;28;20388;-77
2022/06/09 10:24:18;;;;;;;8.27;2.93;;;;;;;;;;5072161;28;20431;-77
2022/06/09 10:26:45;;;;;;;7.13;3.30;;;;;;;;;;5072548;28;20463;-77
2022/06/09 10:29:22;;;;;;;9.47;3.00;;;;;;;;;;5072766;28;20838;-78
2022/06/09 10:31:58;;;;;;;7.30;2.90;;;;;;;;;;5072792;28;20807;-77
2022/06/09 10:34:42;;;;;;;7.67;2.80;;;;;;;;;;5072251;28;20510;-77
2022/06/09 10:37:15;;;;;;;6.63;3.03;;;;;;;;;;5072668;28;20858;-77
2022/06/09 10:39:50;;;;;;;9.53;2.60;;;;;;;;;;5072478;28;20412;-77
2022/06/09 10:42:29;;;;;;;8.60;2.80;;;;;;;;;;5072444;28;20399;-78
2022/06/09 10:45:11;;;;;;;6.27;2.53;;;;;;;;;;5071974;28;20482;-77
2022/06/09 10:56:24;;;;;;;6.20;2.60;;;;;;;;;;5066753;28;20442;-78
2022/06/09 10:58:53;;;;;;;6.43;3.00;;;;;;;;;;5082403;28;20473;-77
2022/06/09 11:01:22;;;;;;;13.97;3.10;;;;;;;;;;5082041;28;20367;-77
2022/06/09 11:03:50;;;;;;;8.43;3.60;;;;;;;;;;5085399;28;20427;-78
2022/06/09 11:06:19;;;;;;;6.47;2.77;;;;;;;;;;5092836;28;20493;-77
2022/06/09 11:09:03;;;;;;;7.03;2.80;;;;;;;;;;5096452;28;20413;-78
2022/06/09 11:11:44;;;;;;;8.13;2.80;;;;;;;;;;5096555;28;20805;-78
2022/06/09 11:14:43;;;;;;;9.03;3.43;;;;;;;;;;5095908;28;20419;-77
2022/06/09 11:17:18;;;;;;;8.83;3.47;;;;;;;;;;5051623;28;20454;-77
2022/06/09 11:19:53;;;;;;;10.20;2.90;;;;;;;;;;5096141;28;20406;-78
2022/06/09 11:22:38;;;;;;;9.77;3.10;;;;;;;;;;5096507;28;20429;-77
2022/06/09 11:25:07;;;;;;;10.13;4.13;;;;;;;;;;5095887;28;20851;-78
2022/06/09 11:27:39;;;;;;;7.47;2.93;;;;;;;;;;5096065;28;20399;-77
2022/06/09 11:30:14;;;;;;;15.93;3.47;;;;;;;;;;5095975;28;20467;-77
2022/06/09 11:32:42;;;;;;;9.60;3.47;;;;;;;;;;5095937;28;20933;-78
2022/06/09 11:35:14;;;;;;;11.97;3.70;;;;;;;;;;5094056;28;20753;-77
2022/06/09 11:37:55;;;;;;;9.00;2.90;;;;;;;;;;5095848;28;20417;-77
2022/06/09 11:40:33;;;;;;;11.73;2.90;;;;;;;;;;5095781;28;20722;-77
2022/06/09 11:42:59;;;;;;;10.17;3.10;;;;;;;;;;5095341;28;20414;-78
2022/06/09 11:45:42;;;;;;;4.80;2.47;;;;;;;;;;5095454;28;20519;-77
2022/06/09 11:48:25;;;;;;;6.30;2.50;;;;;;;;;;5095780;28;20382;-77
2022/06/09 11:50:52;;;;;;;8.83;2.70;;;;;;;;;;5095225;28;20377;-77
2022/06/09 11:53:21;;;;;;;6.33;2.80;;;;;;;;;;5095132;28;20381;-77
2022/06/09 11:56:00;;;;;;;5.83;3.20;;;;;;;;;;5095328;28;20450;-77
2022/06/09 11:58:35;;;;;;;4.93;2.47;;;;;;;;;;5094153;28;20423;-77
2022/06/09 12:01:16;;;;;;;7.93;2.60;;;;;;;;;;5094974;28;20414;-77
2022/06/09 12:04:01;;;;;;;6.17;2.87;;;;;;;;;;5095185;28;20472;-77
2022/06/09 12:06:37;;;;;;;9.83;3.53;;;;;;;;;;5095097;28;20487;-78
2022/06/09 12:09:08;;;;;;;6.40;2.53;;;;;;;;;;5095258;28;20405;-77
2022/06/09 12:11:49;;;;;;;7.70;3.63;;;;;;;;;;5095291;28;20399;-77
2022/06/09 12:14:17;;;;;;;5.57;3.00;;;;;;;;;;5093591;28;20404;-77
2022/06/09 12:16:55;;;;;;;5.93;2.50;;;;;;;;;;5095232;28;20892;-77
2022/06/09 12:19:26;;;;;;;6.57;2.40;;;;;;;;;;5095123;28;20444;-77
2022/06/09 12:21:53;;;;;;;5.17;2.93;;;;;;;;;;5094988;28;20404;-77
2022/06/09 12:24:19;;;;;;;9.00;3.10;;;;;;;;;;5094537;28;20437;-76
2022/06/09 12:26:50;;;;;;;5.33;2.07;;;;;;;;;;5094690;28;20910;-78
2022/06/09 12:29:18;;;;;;;4.30;2.30;;;;;;;;;;5094699;28;20405;-77
2022/06/09 12:32:02;;;;;;;7.33;2.30;;;;;;;;;;5094905;28;20397;-78
2022/06/09 12:34:29;;;;;;;2.90;1.70;;;;;;;;;;5094246;28;20426;-78
2022/06/09 12:36:57;;;;;;;3.93;1.87;;;;;;;;;;5094557;28;20414;-78
2022/06/09 12:39:41;;;;;;;6.90;2.10;;;;;;;;;;5094524;28;20422;-77
2022/06/09 12:42:23;;;;;;;5.63;3.03;;;;;;;;;;5094685;28;20413;-77
2022/06/09 12:44:52;;;;;;;6.53;2.63;;;;;;;;;;5093955;28;20454;-78
2022/06/09 12:47:23;;;;;;;5.10;1.90;;;;;;;;;;5094336;28;20427;-79
2022/06/09 12:49:50;;;;;;;2.50;1.67;;;;;;;;;;5094379;28;20402;-77
2022/06/09 12:52:23;;;;;;;1.53;1.30;;;;;;;;;;5094424;28;20415;-78
2022/06/09 12:54:55;;;;;;;2.40;1.83;;;;;;;;;;5093955;28;20431;-77
2022/06/09 12:57:26;;;;;;;2.30;1.20;;;;;;;;;;5094124;28;20497;-77
2022/06/09 13:00:13;;;;;;;3.57;1.53;;;;;;;;;;5094300;28;20812;-77
2022/06/09 13:02:39;;;;;;;3.93;1.77;;;;;;;;;;5094236;28;20426;-77
2022/06/09 13:05:25;;;;;;;3.17;2.00;;;;;;;;;;5093717;28;20943;-77
2022/06/09 13:07:52;;;;;;;5.93;1.90;;;;;;;;;;5094101;28;20482;-77
2022/06/09 13:10:20;;;;;;;3.10;2.10;;;;;;;;;;5094214;28;20504;-77
2022/06/09 13:12:51;;;;;;;6.27;2.67;;;;;;;;;;5093879;28;20407;-77
2022/06/09 13:15:20;;;;;;;5.17;1.93;;;;;;;;;;5093915;28;20426;-77
2022/06/09 13:17:46;;;;;;;6.67;1.77;;;;;;;;;;5094249;28;20455;-77
2022/06/09 13:20:15;;;;;;;2.93;1.40;;;;;;;;;;5094169;28;20398;-78
2022/06/09 13:22:43;;;;;;;2.40;2.03;;;;;;;;;;5093668;28;20414;-77
2022/06/09 13:25:13;;;;;;;2.80;1.63;;;;;;;;;;5092954;28;20530;-77
2022/06/09 13:27:41;;;;;;;4.27;1.67;;;;;;;;;;5094186;28;20407;-77
2022/06/09 13:30:26;;;;;;;2.43;1.60;;;;;;;;;;5092471;28;20406;-77
2022/06/09 13:32:52;;;;;;;1.83;1.70;;;;;;;;;;5093653;28;20543;-77
2022/06/09 13:35:24;;;;;;;3.87;1.60;;;;;;;;;;5093652;28;20418;-77
2022/06/09 13:38:00;;;;;;;3.07;1.83;;;;;;;;;;5093508;28;20409;-77
2022/06/09 13:40:27;;;;;;;2.93;1.60;;;;;;;;;;5093509;28;20403;-77
2022/06/09 13:42:56;;;;;;;8.57;1.67;;;;;;;;;;5093248;28;20411;-77
2022/06/09 13:45:23;;;;;;;3.47;1.20;;;;;;;;;;5093132;28;20819;-77
2022/06/09 13:48:08;;;;;;;2.63;1.30;;;;;;;;;;5093175;28;20436;-77
2022/06/09 13:50:38;;;;;;;1.97;1.40;;;;;;;;;;5093102;28;20409;-77
2022/06/09 13:53:22;;;;;;;2.10;1.33;;;;;;;;;;5092994;28;20403;-77
2022/06/09 13:55:49;;;;;;;1.20;1.00;;;;;;;;;;5091730;28;20445;-77
2022/06/09 13:58:15;;;;;;;1.60;1.27;;;;;;;;;;5091929;28;20388;-77
2022/06/09 14:00:47;;;;;;;3.67;1.10;;;;;;;;;;5091946;28;20472;-78
2022/06/09 14:03:14;;;;;;;5.87;1.30;;;;;;;;;;5092729;28;20415;-77
2022/06/09 14:05:43;;;;;;;1.73;1.30;;;;;;;;;;5092820;28;20511;-78
2022/06/09 14:08:11;;;;;;;4.50;1.57;;;;;;;;;;5093008;28;20501;-77
2022/06/09 14:10:37;;;;;;;3.70;1.40;;;;;;;;;;5093053;28;20840;-77
2022/06/09 14:13:04;;;;;;;4.17;1.47;;;;;;;;;;5092634;28;20462;-77
2022/06/09 14:15:32;;;;;;;2.77;1.53;;;;;;;;;;5093009;28;20441;-77
2022/06/09 14:17:59;;;;;;;2.87;2.00;;;;;;;;;;5092925;28;20418;-77
2022/06/09 14:20:29;;;;;;;2.90;1.40;;;;;;;;;;5093153;28;20782;-77
2022/06/09 14:22:56;;;;;;;2.33;1.80;;;;;;;;;;5092623;28;20415;-76
2022/06/09 14:25:25;;;;;;;3.63;2.17;;;;;;;;;;5092856;28;20553;-77
2022/06/09 14:27:51;;;;;;;3.13;2.00;;;;;;;;;;5093020;28;20406;-78
2022/06/09 14:30:20;;;;;;;3.20;2.10;;;;;;;;;;5092701;28;20434;-77
2022/06/09 14:32:46;;;;;;;5.37;3.83;;;;;;;;;;5091604;28;20407;-78
2022/06/09 14:35:16;;;;;;;5.77;2.30;;;;;;;;;;5091615;28;20445;-77
2022/06/09 14:37:42;;;;;;;4.93;3.63;;;;;;;;;;5077262;28;20782;-77
2022/06/09 14:40:21;;;;;;;5.80;3.97;;;;;;;;;;5076591;28;20423;-77
2022/06/09 14:42:47;;;;;;;3.97;3.57;;;;;;;;;;5080897;28;20430;-77
2022/06/09 14:45:13;;;;;;;5.13;4.63;;;;;;;;;;5096467;28;20468;-77
2022/06/09 14:47:39;;;;;;;5.80;4.53;;;;;;;;;;5096745;28;20393;-77
2022/06/09 14:50:05;;;;;;;8.67;4.60;;;;;;;;;;5096457;28;20414;-76
2022/06/09 14:52:31;;;;;;;7.40;4.73;;;;;;;;;;5096561;28;20445;-76
2022/06/09 14:54:58;;;;;;;7.40;5.43;;;;;;;;;;5096219;28;20433;-77
2022/06/09 14:57:24;;;;;;;6.87;4.50;;;;;;;;;;5095375;28;20434;-77
2022/06/09 14:59:50;;;;;;;7.97;4.88;;;;;;;;;;5089331;28;20814;-77
2022/06/09 15:02:20;;;;;;;4.50;3.90;;;;;;;;;;5086513;28;20886;-77
2022/06/09 15:04:46;;;;;;;8.10;5.07;;;;;;;;;;5094301;28;20462;-77
2022/06/09 15:07:17;;;;;;;6.07;5.57;;;;;;;;;;5092312;28;20415;-78
2022/06/09 15:09:43;;;;;;;8.90;6.10;;;;;;;;;;5079574;28;20475;-77